createdAt,value
2023-02-09T00:02:09.099Z,30.73
2023-02-09T00:04:37.536Z,29.00
2023-02-09T00:07:06.308Z,31.53
2023-02-09T00:09:33.766Z,30.13
2023-02-09T00:12:18.928Z,29.77
2023-02-09T00:14:46.377Z,26.47
2023-02-09T00:17:13.831Z,27.30
2023-02-09T00:19:41.418Z,30.27
2023-02-09T00:22:10.228Z,28.07
2023-02-09T00:24:37.826Z,27.80
2023-02-09T00:27:05.321Z,28.40
2023-02-09T00:29:33.015Z,28.13
2023-02-09T00:32:00.517Z,26.03
2023-02-09T00:34:28.596Z,26.03
2023-02-09T00:36:56.107Z,27.57
2023-02-09T00:39:25.161Z,26.43
2023-02-09T00:42:07.806Z,28.20
2023-02-09T00:44:36.558Z,27.30
2023-02-09T00:47:04.484Z,27.53
2023-02-09T00:49:32.708Z,25.20
2023-02-09T00:52:02.117Z,25.40
2023-02-09T00:54:30.986Z,25.13
2023-02-09T00:57:05.008Z,29.73
2023-02-09T00:59:35.187Z,28.27
2023-02-09T01:02:03.441Z,26.93
2023-02-09T01:04:31.047Z,26.43
2023-02-09T01:06:58.510Z,28.33
2023-02-09T01:09:26.217Z,25.83
2023-02-09T01:11:55.067Z,28.07
2023-02-09T01:14:22.718Z,26.57
2023-02-09T01:16:50.302Z,28.03
2023-02-09T01:19:18.386Z,27.33
2023-02-09T01:21:47.699Z,26.63
2023-02-09T01:24:16.288Z,27.47
2023-02-09T01:26:43.777Z,41.93
2023-02-09T01:29:19.029Z,26.70
2023-02-09T01:31:47.226Z,27.60
2023-02-09T01:34:15.896Z,27.33
2023-02-09T01:36:43.759Z,26.67
2023-02-09T01:39:12.129Z,25.07
2023-02-09T01:41:40.082Z,26.73
2023-02-09T01:44:25.179Z,24.90
2023-02-09T01:46:53.995Z,28.23
2023-02-09T01:49:22.793Z,24.27
2023-02-09T01:51:53.491Z,25.27
2023-02-09T01:54:22.776Z,26.63
2023-02-09T01:56:52.879Z,28.63
2023-02-09T01:59:20.836Z,25.97
2023-02-09T02:01:48.524Z,26.97
2023-02-09T02:04:18.560Z,24.27
2023-02-09T02:06:46.578Z,27.13
2023-02-09T02:09:15.008Z,23.97
2023-02-09T02:11:44.249Z,23.07
2023-02-09T02:14:26.736Z,27.00
2023-02-09T02:17:02.146Z,26.33
2023-02-09T02:20:10.170Z,26.87
2023-02-09T02:22:56.610Z,26.13
2023-02-09T02:25:40.923Z,27.00
2023-02-09T02:28:16.127Z,27.77
2023-02-09T02:30:49.582Z,26.63
2023-02-09T02:33:24.286Z,28.53
2023-02-09T02:35:55.500Z,26.97
2023-02-09T02:38:29.112Z,27.60
2023-02-09T02:40:59.743Z,30.00
2023-02-09T02:43:37.436Z,25.77
2023-02-09T02:46:06.561Z,25.80
2023-02-09T02:48:38.575Z,24.00
2023-02-09T02:51:07.798Z,24.30
2023-02-09T02:53:36.732Z,27.07
2023-02-09T02:56:07.328Z,27.90
2023-02-09T02:58:36.355Z,26.77
2023-02-09T03:01:05.069Z,26.53
2023-02-09T03:03:34.634Z,28.40
2023-02-09T03:06:04.741Z,26.07
2023-02-09T03:08:46.008Z,27.57
2023-02-09T03:11:13.546Z,27.50
2023-02-09T03:13:46.934Z,26.87
2023-02-09T03:16:38.138Z,27.33
2023-02-09T03:19:13.591Z,25.67
2023-02-09T03:22:08.244Z,25.83
2023-02-09T03:24:41.038Z,27.80
2023-02-09T03:27:11.653Z,26.77
2023-02-09T03:29:39.963Z,25.83
2023-02-09T03:32:07.736Z,21.93
2023-02-09T03:34:35.358Z,29.77
2023-02-09T03:37:04.234Z,28.83
2023-02-09T03:39:31.694Z,25.80
2023-02-09T03:41:59.163Z,28.00
2023-02-09T03:44:29.524Z,29.30
2023-02-09T03:46:57.860Z,25.67
2023-02-09T03:49:25.601Z,24.97
2023-02-09T03:51:55.075Z,24.73
2023-02-09T03:54:25.399Z,24.53
2023-02-09T03:56:52.862Z,26.60
2023-02-09T03:59:20.823Z,24.53
2023-02-09T04:01:48.301Z,25.17
2023-02-09T04:04:15.796Z,23.30
2023-02-09T04:06:43.270Z,32.80
2023-02-09T04:09:11.846Z,27.60
2023-02-09T04:11:40.809Z,25.97
2023-02-09T04:14:09.204Z,24.70
2023-02-09T04:16:37.042Z,25.47
2023-02-09T04:19:04.657Z,29.43
2023-02-09T04:21:32.469Z,25.90
2023-02-09T04:23:59.947Z,25.47
2023-02-09T04:26:27.487Z,25.70
2023-02-09T04:28:56.333Z,27.00
2023-02-09T04:31:23.934Z,24.03
2023-02-09T04:33:51.487Z,26.70
2023-02-09T04:36:18.945Z,25.73
2023-02-09T04:38:46.414Z,29.87
2023-02-09T04:41:13.846Z,28.27
2023-02-09T04:43:41.527Z,27.00
2023-02-09T04:46:14.499Z,26.43
2023-02-09T04:48:42.020Z,29.57
2023-02-09T04:51:09.830Z,27.63
2023-02-09T04:53:37.477Z,26.67
2023-02-09T04:56:05.268Z,28.60
2023-02-09T04:58:50.456Z,27.50
2023-02-09T05:01:24.827Z,33.23
2023-02-09T05:03:54.699Z,27.17
2023-02-09T05:06:23.385Z,29.30
2023-02-09T05:08:50.809Z,27.53
2023-02-09T05:11:18.287Z,31.67
2023-02-09T05:13:46.016Z,31.70
2023-02-09T05:16:15.237Z,28.47
2023-02-09T05:18:44.202Z,27.50
2023-02-09T05:21:11.609Z,30.33
2023-02-09T05:23:39.060Z,30.10
2023-02-09T05:26:06.726Z,29.43
2023-02-09T05:28:34.161Z,29.97
2023-02-09T05:31:02.158Z,32.37
2023-02-09T05:33:29.741Z,27.13
2023-02-09T05:35:58.540Z,25.20
2023-02-09T05:38:26.165Z,28.70
2023-02-09T05:40:53.613Z,30.67
2023-02-09T05:43:21.045Z,28.33
2023-02-09T05:45:48.620Z,31.23
2023-02-09T05:48:16.116Z,26.87
2023-02-09T05:50:43.814Z,30.13
2023-02-09T05:53:14.423Z,26.83
2023-02-09T05:55:43.482Z,27.70
2023-02-09T05:58:11.117Z,28.83
2023-02-09T06:00:38.568Z,28.67
2023-02-09T06:03:06.006Z,28.27
2023-02-09T06:05:58.298Z,29.97
2023-02-09T06:08:31.568Z,25.63
2023-02-09T06:10:59.020Z,28.80
2023-02-09T06:13:26.489Z,29.27
2023-02-09T06:15:56.656Z,26.67
2023-02-09T06:18:24.201Z,29.13
2023-02-09T06:20:51.630Z,26.47
2023-02-09T06:23:19.170Z,29.67
2023-02-09T06:25:47.960Z,29.50
2023-02-09T06:28:15.448Z,28.00
2023-02-09T06:30:43.067Z,28.70
2023-02-09T06:33:10.585Z,28.93
2023-02-09T06:35:38.033Z,30.43
2023-02-09T06:38:05.435Z,29.00
2023-02-09T06:40:33.117Z,29.77
2023-02-09T06:43:02.193Z,28.77
2023-02-09T06:45:29.700Z,29.73
2023-02-09T06:47:57.204Z,31.40
2023-02-09T06:50:24.870Z,27.53
2023-02-09T06:52:52.436Z,28.37
2023-02-09T06:55:20.037Z,30.03
2023-02-09T06:57:47.493Z,27.47
2023-02-09T07:00:17.076Z,32.13
2023-02-09T07:02:45.005Z,32.57
2023-02-09T07:05:12.722Z,30.97
2023-02-09T07:07:40.664Z,32.33
2023-02-09T07:10:09.409Z,29.47
2023-02-09T07:12:37.665Z,29.53
2023-02-09T07:15:06.304Z,28.60
2023-02-09T07:17:35.114Z,29.07
2023-02-09T07:20:03.702Z,30.43
2023-02-09T07:22:31.239Z,31.00
2023-02-09T07:25:04.548Z,30.53
2023-02-09T07:27:56.150Z,36.90
2023-02-09T07:30:31.735Z,31.63
2023-02-09T07:33:05.268Z,31.97
2023-02-09T07:38:20.468Z,32.50
2023-02-09T07:40:48.021Z,36.07
2023-02-09T07:43:15.547Z,35.37
2023-02-09T07:45:43.596Z,31.67
2023-02-09T07:48:12.874Z,32.97
2023-02-09T07:50:40.574Z,31.53
2023-02-09T07:53:08.858Z,34.37
2023-02-09T07:55:36.320Z,34.27
2023-02-09T07:58:03.776Z,33.73
2023-02-09T08:00:31.276Z,34.83
2023-02-09T08:03:00.223Z,38.20
2023-02-09T08:05:32.708Z,36.03
2023-02-09T08:08:00.326Z,34.10
2023-02-09T08:10:28.455Z,36.17
2023-02-09T08:13:03.559Z,35.27
2023-02-09T08:15:32.940Z,38.50
2023-02-09T08:18:03.280Z,36.73
2023-02-09T08:20:33.085Z,39.70
2023-02-09T08:23:04.085Z,38.93
2023-02-09T08:25:31.893Z,38.43
2023-02-09T08:27:59.528Z,40.90
2023-02-09T08:30:27.315Z,44.23
2023-02-09T08:32:54.854Z,38.90
2023-02-09T08:35:22.342Z,36.70
2023-02-09T08:37:51.145Z,36.40
2023-02-09T08:40:18.820Z,37.93
2023-02-09T08:42:46.506Z,36.37
2023-02-09T08:45:14.775Z,39.73
2023-02-09T08:47:54.474Z,42.37
2023-02-09T08:50:21.933Z,42.63
2023-02-09T08:52:50.809Z,37.43
2023-02-09T08:55:18.401Z,39.63
2023-02-09T08:57:46.077Z,33.93
2023-02-09T09:00:14.173Z,38.57
2023-02-09T09:02:41.745Z,39.47
2023-02-09T09:05:09.780Z,38.10
2023-02-09T09:07:37.248Z,36.73
2023-02-09T09:10:08.734Z,39.00
2023-02-09T09:12:36.319Z,42.03
2023-02-09T09:15:03.827Z,37.63
2023-02-09T09:17:31.388Z,38.50
2023-02-09T09:19:58.924Z,36.63
2023-02-09T09:22:26.911Z,41.23
2023-02-09T09:24:55.297Z,38.80
2023-02-09T09:27:26.101Z,37.60
2023-02-09T09:29:54.430Z,38.77
2023-02-09T09:32:24.641Z,40.00
2023-02-09T09:34:53.523Z,36.60
2023-02-09T09:37:21.135Z,37.43
2023-02-09T09:39:48.820Z,38.67
2023-02-09T09:42:22.460Z,39.27
2023-02-09T09:44:51.275Z,37.40
2023-02-09T09:47:19.997Z,42.17
2023-02-09T09:49:47.737Z,37.80
2023-02-09T09:52:19.096Z,36.60
2023-02-09T09:54:46.931Z,36.43
2023-02-09T09:57:19.183Z,38.47
2023-02-09T09:59:46.932Z,35.73
2023-02-09T10:02:27.574Z,36.13
2023-02-09T10:04:57.098Z,37.37
2023-02-09T10:07:30.681Z,38.03
2023-02-09T10:10:00.339Z,37.20
2023-02-09T10:12:33.415Z,39.67
2023-02-09T10:15:01.048Z,34.80
2023-02-09T10:17:29.811Z,37.23
2023-02-09T10:20:00.734Z,35.17
2023-02-09T10:22:28.525Z,35.80
2023-02-09T10:24:56.053Z,39.80
2023-02-09T10:27:26.165Z,36.87
2023-02-09T10:29:53.636Z,37.37
2023-02-09T10:32:22.086Z,37.80
2023-02-09T10:34:52.820Z,33.27
2023-02-09T10:37:22.195Z,34.13
2023-02-09T10:39:54.920Z,33.47
2023-02-09T10:42:24.364Z,35.40
2023-02-09T10:44:53.072Z,35.30
2023-02-09T10:47:27.962Z,33.53
2023-02-09T10:49:57.781Z,37.40
2023-02-09T10:52:26.085Z,34.43
2023-02-09T10:54:56.372Z,35.73
2023-02-09T10:57:39.606Z,35.67
2023-02-09T11:00:26.787Z,35.93
2023-02-09T11:02:55.305Z,35.17
2023-02-09T11:05:31.919Z,37.53
2023-02-09T11:08:02.155Z,36.17
2023-02-09T11:10:31.384Z,32.23
2023-02-09T11:12:59.456Z,32.17
2023-02-09T11:15:27.919Z,34.20
2023-02-09T11:18:00.450Z,32.27
2023-02-09T11:20:35.589Z,35.10
2023-02-09T11:23:13.058Z,35.10
2023-02-09T11:25:49.751Z,32.60
2023-02-09T11:28:26.158Z,30.20
2023-02-09T11:31:04.465Z,29.73
2023-02-09T11:33:39.767Z,31.93
2023-02-09T11:36:15.321Z,32.50
2023-02-09T11:38:46.326Z,34.37
2023-02-09T11:41:33.701Z,37.10
2023-02-09T11:44:03.463Z,31.17
2023-02-09T11:46:33.859Z,30.20
2023-02-09T11:49:04.294Z,30.30
2023-02-09T11:51:37.473Z,29.43
2023-02-09T11:54:07.362Z,28.77
2023-02-09T11:56:37.369Z,30.10
2023-02-09T11:59:06.933Z,30.37
2023-02-09T12:01:39.955Z,29.50
2023-02-09T12:04:12.285Z,27.60
2023-02-09T12:06:42.439Z,28.73
2023-02-09T12:09:32.766Z,28.77
2023-02-09T12:12:09.012Z,31.27
2023-02-09T12:14:44.072Z,30.17
2023-02-09T12:17:14.834Z,27.77
2023-02-09T12:19:44.484Z,30.47
2023-02-09T12:22:30.700Z,29.77
2023-02-09T12:25:13.372Z,28.80
2023-02-09T12:27:41.366Z,30.43
2023-02-09T12:30:23.746Z,29.97
2023-02-09T12:32:51.499Z,26.67
2023-02-09T12:35:25.712Z,29.60
2023-02-09T12:38:09.746Z,29.27
2023-02-09T12:40:39.011Z,30.77
2023-02-09T12:43:11.461Z,27.80
2023-02-09T12:45:39.834Z,28.70
2023-02-09T12:48:25.036Z,29.93
2023-02-09T12:50:54.291Z,26.40
2023-02-09T12:53:31.998Z,29.33
2023-02-09T12:56:02.125Z,29.17
2023-02-09T12:58:37.417Z,30.10
2023-02-09T13:01:05.243Z,28.57
2023-02-09T13:03:33.742Z,30.10
2023-02-09T13:06:02.530Z,27.73
2023-02-09T13:08:39.733Z,28.80
2023-02-09T13:11:19.107Z,29.93
2023-02-09T13:13:49.754Z,27.03
2023-02-09T13:16:44.404Z,27.93
2023-02-09T13:19:15.222Z,24.77
2023-02-09T13:21:49.235Z,27.57
2023-02-09T13:24:17.547Z,30.37
2023-02-09T13:26:51.652Z,31.53
2023-02-09T13:29:22.129Z,25.77
2023-02-09T13:31:55.356Z,29.23
2023-02-09T13:34:27.188Z,24.63
2023-02-09T13:36:59.079Z,27.97
2023-02-09T13:39:27.558Z,25.63
2023-02-09T13:41:56.465Z,24.67
2023-02-09T13:44:25.979Z,25.93
2023-02-09T13:46:54.570Z,25.83
2023-02-09T13:49:40.469Z,23.83
2023-02-09T13:55:20.652Z,23.93
2023-02-09T13:57:53.208Z,24.33
2023-02-09T14:00:27.627Z,30.77
2023-02-09T14:02:56.688Z,22.37
2023-02-09T14:05:29.622Z,23.20
2023-02-09T14:07:57.774Z,23.07
2023-02-09T14:10:25.947Z,26.30
2023-02-09T14:12:59.920Z,24.30
2023-02-09T14:15:49.174Z,21.93
2023-02-09T14:18:24.328Z,22.93
2023-02-09T14:21:14.139Z,22.23
2023-02-09T14:23:42.282Z,21.20
2023-02-09T14:26:43.503Z,19.73
2023-02-09T14:33:34.691Z,19.70
2023-02-09T14:36:04.655Z,17.80
2023-02-09T14:38:37.060Z,16.43
2023-02-09T14:41:36.436Z,16.37
2023-02-09T14:44:04.763Z,18.60
2023-02-09T14:46:47.574Z,17.73
2023-02-09T14:49:16.820Z,17.57
2023-02-09T14:51:45.588Z,18.27
2023-02-09T14:54:19.709Z,16.77
2023-02-09T14:56:48.057Z,16.20
2023-02-09T14:59:17.146Z,16.67
2023-02-09T15:01:45.014Z,16.80
2023-02-09T15:04:12.747Z,17.30
2023-02-09T15:06:43.321Z,15.73
2023-02-09T15:09:12.388Z,16.00
2023-02-09T15:11:57.766Z,16.90
2023-02-09T15:14:26.106Z,15.30
2023-02-09T15:16:54.784Z,15.20
2023-02-09T15:19:23.382Z,17.00
2023-02-09T15:22:06.476Z,15.60
2023-02-09T15:24:37.524Z,12.23
2023-02-09T15:27:05.132Z,14.30
2023-02-09T15:29:34.434Z,14.80
2023-02-09T15:32:01.897Z,18.13
2023-02-09T15:34:30.739Z,15.80
2023-02-09T15:37:02.518Z,16.80
2023-02-09T15:39:31.496Z,18.70
2023-02-09T15:42:31.422Z,17.80
2023-02-09T15:45:17.257Z,16.67
2023-02-09T15:47:56.402Z,15.70
2023-02-09T15:50:26.939Z,14.03
2023-02-09T15:52:58.090Z,15.87
2023-02-09T15:55:26.815Z,14.77
2023-02-09T15:57:56.117Z,16.93
2023-02-09T16:00:26.067Z,16.43
2023-02-09T16:02:55.457Z,15.77
2023-02-09T16:05:24.048Z,16.10
2023-02-09T16:07:52.754Z,18.50
2023-02-09T16:10:24.140Z,16.57
2023-02-09T16:12:52.032Z,15.43
2023-02-09T16:15:20.332Z,16.73
2023-02-09T16:17:48.426Z,18.17
2023-02-09T16:20:19.018Z,15.40
2023-02-09T16:22:47.896Z,16.60
2023-02-09T16:25:18.575Z,17.43
2023-02-09T16:27:49.426Z,19.20
2023-02-09T16:30:18.850Z,19.73
2023-02-09T16:32:46.992Z,18.90
2023-02-09T16:35:17.161Z,18.50
2023-02-09T16:37:47.604Z,17.90
2023-02-09T16:40:20.841Z,20.70
2023-02-09T16:42:50.230Z,24.33
2023-02-09T16:45:19.513Z,24.10
2023-02-09T16:47:50.773Z,21.67
2023-02-09T16:50:23.055Z,22.30
2023-02-09T16:52:51.982Z,21.63
2023-02-09T16:55:24.603Z,21.60
2023-02-09T16:57:57.219Z,20.40
2023-02-09T17:00:26.979Z,17.00
2023-02-09T17:02:56.432Z,17.00
2023-02-09T17:05:26.513Z,17.47
2023-02-09T17:07:55.928Z,18.27
2023-02-09T17:10:26.846Z,18.03
2023-02-09T17:12:57.009Z,17.00
2023-02-09T17:15:31.074Z,23.27
2023-02-09T17:18:02.150Z,24.80
2023-02-09T17:20:34.810Z,20.50
2023-02-09T17:23:03.242Z,21.80
2023-02-09T17:25:32.291Z,24.07
2023-02-09T17:28:02.835Z,20.30
2023-02-09T17:30:32.461Z,24.57
2023-02-09T17:33:02.805Z,19.67
2023-02-09T17:36:03.703Z,21.63
2023-02-09T17:38:22.695Z,21.13
2023-02-09T17:40:52.877Z,24.13
2023-02-09T17:43:22.576Z,26.93
2023-02-09T17:45:53.119Z,24.47
2023-02-09T17:48:23.001Z,26.23
2023-02-09T17:50:52.657Z,26.03
2023-02-09T17:53:22.746Z,24.23
2023-02-09T17:55:52.680Z,25.63
2023-02-09T17:58:25.035Z,24.67
2023-02-09T18:00:54.511Z,25.57
2023-02-09T18:03:23.586Z,23.47
2023-02-09T18:05:53.253Z,27.13
2023-02-09T18:08:21.671Z,24.53
2023-02-09T18:10:51.337Z,24.80
2023-02-09T18:13:21.513Z,25.20
2023-02-09T18:15:53.865Z,22.70
2023-02-09T18:18:24.098Z,22.93
2023-02-09T18:20:52.786Z,27.23
2023-02-09T18:23:23.952Z,25.77
2023-02-09T18:25:52.331Z,27.40
2023-02-09T18:28:20.389Z,24.90
2023-02-09T18:30:47.886Z,28.87
2023-02-09T18:33:18.625Z,24.40
2023-02-09T18:35:48.205Z,22.50
2023-02-09T18:38:16.262Z,23.90
2023-02-09T18:40:43.876Z,20.70
2023-02-09T18:43:15.234Z,22.67
2023-02-09T18:45:43.719Z,21.37
2023-02-09T18:48:13.155Z,21.20
2023-02-09T18:50:42.749Z,23.17
2023-02-09T18:53:12.377Z,25.77
2023-02-09T18:55:40.861Z,19.80
2023-02-09T18:58:09.468Z,18.90
2023-02-09T19:00:37.838Z,23.37
2023-02-09T19:03:06.134Z,20.93
2023-02-09T19:05:34.730Z,19.67
2023-02-09T19:08:03.855Z,20.50
2023-02-09T19:10:33.288Z,19.73
2023-02-09T19:13:03.541Z,19.63
2023-02-09T19:15:32.187Z,21.90
2023-02-09T19:17:59.985Z,20.77
2023-02-09T19:20:28.364Z,25.23
2023-02-09T19:22:58.261Z,21.23
2023-02-09T19:25:28.846Z,23.47
2023-02-09T19:27:57.115Z,20.70
2023-02-09T19:30:26.610Z,22.23
2023-02-09T19:32:54.887Z,23.10
2023-02-09T19:35:22.903Z,19.63
2023-02-09T19:37:53.448Z,21.40
2023-02-09T19:40:28.429Z,20.30
2023-02-09T19:42:58.244Z,28.67
2023-02-09T19:45:26.209Z,19.00
2023-02-09T19:47:54.262Z,21.23
2023-02-09T19:50:21.929Z,22.60
2023-02-09T19:52:50.460Z,24.07
2023-02-09T19:55:18.543Z,22.03
2023-02-09T19:57:46.322Z,20.40
2023-02-09T20:00:18.065Z,20.10
2023-02-09T20:02:45.971Z,20.97
2023-02-09T20:05:15.390Z,19.93
2023-02-09T20:07:48.724Z,24.47
2023-02-09T20:10:16.296Z,21.63
2023-02-09T20:15:18.682Z,19.00
2023-02-09T20:20:21.793Z,21.33
2023-02-09T20:22:51.948Z,22.27
2023-02-09T20:25:20.035Z,22.33
2023-02-09T20:27:49.457Z,19.63
2023-02-09T20:30:19.534Z,21.40
2023-02-09T20:32:47.327Z,21.00
2023-02-09T20:35:16.194Z,21.43
2023-02-09T20:37:45.325Z,22.03
2023-02-09T20:40:13.724Z,20.27
2023-02-09T20:42:58.917Z,20.90
2023-02-09T20:45:45.749Z,21.27
2023-02-09T20:48:13.829Z,22.03
2023-02-09T20:50:42.121Z,23.90
2023-02-09T20:53:10.312Z,23.23
2023-02-09T20:55:38.498Z,22.60
2023-02-09T20:58:06.619Z,27.27
2023-02-09T21:00:35.548Z,22.33
2023-02-09T21:03:03.743Z,22.90
2023-02-09T21:05:33.010Z,21.40
2023-02-09T21:08:04.433Z,25.23
2023-02-09T21:10:35.694Z,25.50
2023-02-09T21:13:03.250Z,19.20
2023-02-09T21:15:32.577Z,18.10
2023-02-09T21:18:03.207Z,21.00
2023-02-09T21:20:33.826Z,18.40
2023-02-09T21:23:02.125Z,20.27
2023-02-09T21:25:29.551Z,22.10
2023-02-09T21:27:59.760Z,21.63
2023-02-09T21:30:27.622Z,20.30
2023-02-09T21:32:55.092Z,19.43
2023-02-09T21:35:25.702Z,19.10
2023-02-09T21:37:53.276Z,22.03
2023-02-09T21:40:20.994Z,21.47
2023-02-09T21:42:49.634Z,20.03
2023-02-09T21:45:17.143Z,23.30
2023-02-09T21:47:44.637Z,22.07
2023-02-09T21:50:12.782Z,20.17
2023-02-09T21:52:41.587Z,19.00
2023-02-09T21:55:09.297Z,21.80
2023-02-09T21:57:37.757Z,20.40
2023-02-09T22:00:07.569Z,20.90
2023-02-09T22:02:35.117Z,23.10
2023-02-09T22:05:03.560Z,21.33
2023-02-09T22:07:31.372Z,21.60
2023-02-09T22:10:02.097Z,22.10
2023-02-09T22:12:29.610Z,22.60
2023-02-09T22:14:57.093Z,21.90
2023-02-09T22:17:24.513Z,21.50
2023-02-09T22:19:51.941Z,22.37
2023-02-09T22:22:19.441Z,21.80
2023-02-09T22:24:46.905Z,21.03
2023-02-09T22:27:15.732Z,17.80
2023-02-09T22:29:44.219Z,19.97
2023-02-09T22:32:11.677Z,20.03
2023-02-09T22:34:39.270Z,20.07
2023-02-09T22:37:06.775Z,17.47
2023-02-09T22:39:34.249Z,19.80
2023-02-09T22:42:01.745Z,18.80
2023-02-09T22:44:30.999Z,20.50
2023-02-09T22:46:58.500Z,17.20
2023-02-09T22:49:25.919Z,21.97
2023-02-09T22:51:53.385Z,18.57
2023-02-09T22:54:21.167Z,19.07
2023-02-09T22:56:48.701Z,16.53
2023-02-09T22:59:16.655Z,17.87
2023-02-09T23:01:45.485Z,17.23
2023-02-09T23:04:13.060Z,18.97
2023-02-09T23:06:40.547Z,19.17
2023-02-09T23:09:08.606Z,22.33
2023-02-09T23:11:36.660Z,20.50
2023-02-09T23:14:09.756Z,21.93
2023-02-09T23:16:38.716Z,20.83
2023-02-09T23:19:08.405Z,19.77
2023-02-09T23:21:36.700Z,21.07
2023-02-09T23:24:04.371Z,19.57
2023-02-09T23:26:32.113Z,20.73
2023-02-09T23:29:00.888Z,19.53
2023-02-09T23:31:28.920Z,20.30
2023-02-09T23:33:56.852Z,23.80
2023-02-09T23:36:26.730Z,21.30
2023-02-09T23:38:54.634Z,22.27
2023-02-09T23:41:22.439Z,21.77
2023-02-09T23:43:50.117Z,19.03
2023-02-09T23:46:18.639Z,19.27
2023-02-09T23:48:46.314Z,22.13
2023-02-09T23:51:15.100Z,19.27
2023-02-09T23:53:43.893Z,20.03
2023-02-09T23:56:12.857Z,19.43
2023-02-09T23:58:41.630Z,20.80
